Time;durP1;ratioP1;P1;durP2;ratioP2;P2;SDS_P1;SDS_P2;PMS_P1;PMS_P2;Temp;Humidity;BMP_temperature;BMP_pressure;BME280_temperature;BME280_humidity;BME280_pressure;Samples;Min_cycle;Max_cycle;Signal;HPM_P1;HPM_P2
2022/12/02 00:00:20;;;;;;;32.70;19.00;;;;;;;-1.44;73.22;101845.97;103980;1321;37005;-70
2022/12/02 00:03:19;;;;;;;34.40;19.80;;;;;;;-1.41;73.23;101847.13;103981;1312;37288;-70
2022/12/02 00:05:55;;;;;;;34.80;20.10;;;;;;;-1.41;73.11;101845.40;103999;1321;36033;-68
2022/12/02 00:08:33;;;;;;;40.50;22.40;;;;;;;-1.45;73.21;101841.48;103935;1315;37192;-69
2022/12/02 00:11:22;;;;;;;28.20;19.80;;;;;;;-1.48;73.25;101848.73;103999;1325;37289;-69
2022/12/02 00:14:06;;;;;;;34.60;21.80;;;;;;;-1.50;73.21;101845.42;103934;1325;37280;-69
2022/12/02 00:16:40;;;;;;;35.50;19.40;;;;;;;-1.51;73.00;101841.98;103944;1321;37163;-68
2022/12/02 00:19:17;;;;;;;27.50;18.90;;;;;;;-1.49;73.43;101844.25;104007;1321;36052;-69
2022/12/02 00:21:56;;;;;;;30.90;20.30;;;;;;;-1.46;73.56;101842.99;103977;1321;37211;-68
2022/12/02 00:24:32;;;;;;;35.80;22.80;;;;;;;-1.45;73.20;101848.16;103963;1327;36792;-69
2022/12/02 00:27:11;;;;;;;37.10;21.90;;;;;;;-1.48;73.28;101845.83;103958;1322;37060;-69
2022/12/02 00:29:47;;;;;;;;;;;;;;;-1.50;73.28;101849.02;104013;1321;37102;-68
2022/12/02 00:32:24;;;;;;;30.50;20.20;;;;;;;-1.50;73.34;101842.02;103954;1321;37131;-69
2022/12/02 00:35:00;;;;;;;27.70;17.80;;;;;;;-1.48;73.14;101841.58;103998;1322;37381;-70
2022/12/02 00:37:40;;;;;;;35.00;19.00;;;;;;;-1.43;73.42;101845.52;104005;1321;37684;-69
2022/12/02 00:40:15;;;;;;;30.40;19.40;;;;;;;-1.41;73.27;101843.50;103973;1327;37749;-69
2022/12/02 00:42:51;;;;;;;30.10;18.10;;;;;;;-1.41;73.27;101845.07;104003;1322;37074;-69
2022/12/02 00:48:23;;;;;;;30.90;21.00;;;;;;;-1.54;72.59;101851.63;103855;1327;174850;-69
2022/12/02 00:50:57;;;;;;;26.50;19.20;;;;;;;-1.59;72.78;101849.39;103980;1321;36963;-68
2022/12/02 00:53:36;;;;;;;28.90;18.60;;;;;;;-1.58;72.90;101854.91;103974;1325;36991;-69
2022/12/02 00:56:10;;;;;;;28.20;18.60;;;;;;;-1.58;72.89;101856.82;103968;1324;37272;-69
2022/12/02 00:58:49;;;;;;;29.60;20.40;;;;;;;-1.56;72.92;101851.91;103972;1320;37117;-69
2022/12/02 01:01:28;;;;;;;27.50;18.50;;;;;;;-1.52;72.49;101855.13;103969;1327;37098;-69
2022/12/02 01:04:06;;;;;;;29.90;17.90;;;;;;;-1.58;72.47;101854.59;103977;1326;37076;-69
2022/12/02 01:06:40;;;;;;;27.10;17.40;;;;;;;-1.62;72.28;101854.94;104005;1326;37037;-70
2022/12/02 01:09:14;;;;;;;25.90;16.80;;;;;;;-1.67;72.42;101852.70;104011;1327;37292;-70
2022/12/02 01:11:50;;;;;;;28.50;17.80;;;;;;;-1.72;71.98;101852.52;103992;1327;37576;-70
2022/12/02 01:14:25;;;;;;;26.10;16.60;;;;;;;-1.73;72.44;101848.03;103384;1324;919045;-70
2022/12/02 01:16:59;;;;;;;28.30;17.60;;;;;;;-1.74;72.18;101842.20;103982;1324;36070;-69
2022/12/02 01:19:36;;;;;;;29.60;18.50;;;;;;;-1.70;72.46;101841.98;104016;1321;37138;-69
2022/12/02 01:22:18;;;;;;;32.60;18.80;;;;;;;-1.64;72.71;101837.58;103961;1322;37037;-69
2022/12/02 01:24:51;;;;;;;27.80;17.20;;;;;;;-1.63;72.58;101834.91;103961;1327;37057;-70
2022/12/02 01:27:26;;;;;;;25.80;17.70;;;;;;;-1.66;72.29;101833.05;103994;1324;37290;-70
2022/12/02 01:30:01;;;;;;;29.60;18.60;;;;;;;-1.71;72.19;101828.78;103976;1322;37455;-69
2022/12/02 01:32:35;;;;;;;27.60;16.90;;;;;;;-1.72;72.36;101829.61;104000;1325;37103;-70
2022/12/02 01:35:17;;;;;;;24.80;16.30;;;;;;;-1.70;72.25;101828.13;103985;1321;37089;-69
2022/12/02 01:37:51;;;;;;;25.60;16.60;;;;;;;-1.69;72.33;101832.28;103956;1320;37530;-69
2022/12/02 01:40:26;;;;;;;20.90;16.00;;;;;;;-1.67;72.20;101830.30;103959;1321;37373;-70
2022/12/02 01:43:00;;;;;;;23.10;14.70;;;;;;;-1.63;72.26;101825.64;103940;1324;37255;-70
2022/12/02 01:45:34;;;;;;;24.40;16.00;;;;;;;-1.66;71.89;101825.04;103977;1326;37187;-70
2022/12/02 01:48:10;;;;;;;23.50;15.80;;;;;;;-1.73;71.83;101825.29;104025;1327;37850;-69
2022/12/02 01:50:49;;;;;;;27.10;18.40;;;;;;;-1.82;71.80;101826.17;103976;1321;37010;-70
2022/12/02 01:53:28;;;;;;;22.20;15.90;;;;;;;-1.87;71.73;101824.30;103992;1327;37103;-69
2022/12/02 01:56:14;;;;;;;23.40;15.20;;;;;;;-1.84;71.89;101823.87;103985;1321;37193;-69
2022/12/02 01:58:57;;;;;;;21.40;14.30;;;;;;;-1.86;71.76;101821.92;103967;1321;37076;-70
2022/12/02 02:01:44;;;;;;;24.60;16.60;;;;;;;-1.87;71.90;101816.25;103949;1321;37071;-69
2022/12/02 02:04:22;;;;;;;25.00;16.00;;;;;;;-1.86;72.15;101817.81;103985;1321;37276;-70
2022/12/02 02:07:00;;;;;;;27.70;18.30;;;;;;;-1.83;72.45;101812.64;103995;1324;37287;-69
2022/12/02 02:09:40;;;;;;;30.30;19.10;;;;;;;-1.82;72.18;101816.92;104002;1321;37487;-69
2022/12/02 02:12:14;;;;;;;25.50;17.50;;;;;;;-1.84;72.29;101814.98;104050;1319;36395;-70
2022/12/02 02:14:50;;;;;;;23.60;15.40;;;;;;;-1.82;72.04;101820.03;104011;1321;37315;-68
2022/12/02 02:17:25;;;;;;;23.60;16.50;;;;;;;-1.80;72.22;101819.23;103981;1321;37152;-70
2022/12/02 02:20:04;;;;;;;22.80;14.40;;;;;;;-1.77;72.10;101816.27;104004;1327;38170;-69
2022/12/02 02:22:52;;;;;;;20.60;15.20;;;;;;;-1.79;71.67;101817.54;104017;1327;36316;-69
2022/12/02 02:25:28;;;;;;;30.00;18.50;;;;;;;-1.86;71.83;101819.19;103979;1321;37090;-70
2022/12/02 02:28:09;;;;;;;28.10;18.20;;;;;;;-1.88;72.02;101817.40;103984;1324;36154;-70
2022/12/02 02:30:44;;;;;;;32.60;18.30;;;;;;;-1.89;72.12;101819.08;103980;1327;37226;-70
2022/12/02 02:33:20;;;;;;;28.10;16.70;;;;;;;-1.87;72.17;101818.65;103981;1321;37800;-70
2022/12/02 02:35:55;;;;;;;23.40;16.40;;;;;;;-1.87;71.97;101819.48;103947;1321;37708;-70
2022/12/02 02:38:33;;;;;;;23.90;17.00;;;;;;;-1.86;72.18;101817.83;103978;1325;37172;-70
2022/12/02 02:41:08;;;;;;;29.30;17.50;;;;;;;-1.81;72.20;101813.54;103975;1326;36140;-70
2022/12/02 02:43:45;;;;;;;28.60;16.90;;;;;;;-1.81;71.95;101812.88;104028;1326;37250;-70
2022/12/02 02:46:22;;;;;;;31.30;17.60;;;;;;;-1.84;71.98;101812.23;103996;1322;37705;-69
2022/12/02 02:48:59;;;;;;;27.80;15.70;;;;;;;-1.87;72.02;101812.67;104003;1321;37122;-70
2022/12/02 02:51:33;;;;;;;24.20;16.60;;;;;;;-1.90;71.86;101810.49;104059;1326;37000;-70
2022/12/02 02:54:07;;;;;;;24.00;16.00;;;;;;;-1.93;71.86;101808.15;103835;1319;36981;-70
2022/12/02 02:56:43;;;;;;;20.00;14.90;;;;;;;-1.91;72.08;101806.00;103745;1321;37199;-70
2022/12/02 02:59:20;;;;;;;20.80;14.70;;;;;;;-1.88;72.14;101804.56;103778;1327;37199;-70
2022/12/02 03:01:54;;;;;;;25.70;16.50;;;;;;;-1.83;71.72;101805.60;103766;1321;37005;-70
2022/12/02 03:04:28;;;;;;;29.20;15.30;;;;;;;-1.85;71.61;101804.17;103784;1327;37097;-70
2022/12/02 03:07:02;;;;;;;27.80;16.30;;;;;;;-1.86;71.54;101800.73;103707;1327;37105;-70
2022/12/02 03:09:38;;;;;;;25.30;15.90;;;;;;;-1.91;71.48;101798.14;103753;1321;37107;-70
2022/12/02 03:12:12;;;;;;;27.90;16.90;;;;;;;-1.96;71.40;101798.14;103717;1321;36023;-69
2022/12/02 03:14:46;;;;;;;21.40;14.90;;;;;;;-1.99;71.60;101799.40;103767;1326;37014;-70
2022/12/02 03:17:22;;;;;;;26.50;15.40;;;;;;;-1.93;71.84;101801.64;103721;1321;37121;-70
2022/12/02 03:19:56;;;;;;;22.70;15.60;;;;;;;-1.86;71.84;101802.09;103745;1324;37160;-69
2022/12/02 03:22:35;;;;;;;21.90;13.90;;;;;;;-1.79;71.81;101798.21;103743;1327;36186;-69
2022/12/02 03:25:14;;;;;;;22.80;14.80;;;;;;;-1.77;71.65;101789.75;103127;1321;916651;-70
2022/12/02 03:27:48;;;;;;;25.50;16.20;;;;;;;-1.81;71.36;101791.64;103792;1321;37455;-69
2022/12/02 03:30:23;;;;;;;22.20;16.60;;;;;;;-1.86;71.27;101787.54;103788;1322;37021;-69
2022/12/02 03:33:03;;;;;;;28.00;17.10;;;;;;;-1.93;70.82;101787.30;103792;1321;36352;-70
2022/12/02 03:35:37;;;;;;;24.70;16.60;;;;;;;-1.99;70.97;101788.61;103757;1327;37143;-69
2022/12/02 03:38:11;;;;;;;22.60;14.00;;;;;;;-1.98;70.98;101790.85;103799;1327;36108;-70
2022/12/02 03:40:45;;;;;;;24.90;16.80;;;;;;;-2.00;71.00;101787.91;103800;1327;37005;-70
2022/12/02 03:43:19;;;;;;;22.50;15.50;;;;;;;-2.00;71.12;101786.52;103815;1320;37302;-70
2022/12/02 03:45:53;;;;;;;20.70;15.20;;;;;;;-1.98;71.42;101782.14;103788;1327;36158;-70
2022/12/02 03:48:27;;;;;;;24.20;15.90;;;;;;;-1.97;71.40;101783.39;103775;1327;37120;-69
2022/12/02 03:51:02;;;;;;;24.70;15.70;;;;;;;-1.98;71.69;101784.38;103963;1308;36506;-69
2022/12/02 03:53:36;;;;;;;25.40;16.00;;;;;;;-1.96;71.87;101780.20;103801;1321;37187;-68
2022/12/02 03:56:10;;;;;;;23.30;14.80;;;;;;;-1.96;71.61;101778.84;103766;1327;37091;-70
2022/12/02 03:58:51;;;;;;;22.40;14.10;;;;;;;-1.95;71.40;101778.49;103810;1327;37089;-70
2022/12/02 04:01:27;;;;;;;23.70;14.50;;;;;;;-1.92;71.59;101775.55;103788;1322;37169;-70
2022/12/02 04:04:02;;;;;;;26.00;15.50;;;;;;;-1.87;71.58;101774.33;103778;1327;37107;-70
2022/12/02 04:06:36;;;;;;;27.30;15.70;;;;;;;-1.89;71.28;101773.74;103743;1321;37226;-69
2022/12/02 04:09:12;;;;;;;26.70;16.30;;;;;;;-1.93;71.39;101773.46;103801;1321;38481;-70
2022/12/02 04:11:49;;;;;;;33.30;18.40;;;;;;;-1.94;71.25;101777.48;103789;1321;36994;-70
2022/12/02 04:14:25;;;;;;;43.10;22.50;;;;;;;-1.97;71.57;101774.13;103795;1327;37087;-71
2022/12/02 04:16:58;;;;;;;30.60;18.50;;;;;;;-1.96;71.68;101771.12;103805;1321;38447;-70
2022/12/02 04:19:34;;;;;;;30.00;17.60;;;;;;;-1.97;71.53;101770.59;103808;1321;37056;-69
2022/12/02 04:22:08;;;;;;;28.80;17.80;;;;;;;-1.92;71.93;101766.65;103781;1327;38412;-70
2022/12/02 04:24:42;;;;;;;41.20;20.40;;;;;;;-1.85;71.97;101764.48;103783;1321;37145;-70
2022/12/02 04:27:16;;;;;;;30.00;18.40;;;;;;;-1.83;71.86;101761.65;103744;1321;37536;-68
2022/12/02 04:29:56;;;;;;;41.30;24.50;;;;;;;-1.85;71.75;101759.19;103772;1325;37179;-69
2022/12/02 04:32:34;;;;;;;32.10;20.30;;;;;;;-1.86;71.76;101758.46;103727;1322;37196;-68
2022/12/02 04:35:09;;;;;;;35.40;20.30;;;;;;;-1.91;71.77;101756.59;103727;1321;37162;-68
2022/12/02 04:37:43;;;;;;;31.50;18.70;;;;;;;-1.94;71.80;101754.41;103763;1321;37323;-68
2022/12/02 04:40:19;;;;;;;24.70;16.20;;;;;;;-1.93;72.01;101755.98;103752;1308;37218;-69
2022/12/02 04:42:58;;;;;;;32.70;18.90;;;;;;;-1.92;72.01;101761.48;103810;1327;37607;-68
2022/12/02 04:45:33;;;;;;;37.90;21.90;;;;;;;-1.93;72.06;101762.30;103719;1319;38185;-67
2022/12/02 04:48:09;;;;;;;39.80;22.00;;;;;;;-1.93;72.23;101760.96;103723;1321;37293;-68
2022/12/02 04:50:43;;;;;;;34.90;19.60;;;;;;;-1.96;72.13;101757.92;103692;1328;37072;-69
2022/12/02 04:53:19;;;;;;;34.00;20.50;;;;;;;-1.99;72.23;101756.64;103742;1327;36939;-69
2022/12/02 04:55:53;;;;;;;37.20;20.60;;;;;;;-1.98;72.48;101760.60;103709;1327;37114;-70
2022/12/02 04:58:27;;;;;;;32.40;18.20;;;;;;;-1.99;72.38;101756.98;103757;1327;37620;-69
2022/12/02 05:01:01;;;;;;;27.20;16.70;;;;;;;-1.96;72.40;101759.98;103756;1327;37250;-69
2022/12/02 05:03:38;;;;;;;32.40;17.30;;;;;;;-1.92;72.31;101759.62;103781;1321;37199;-69
2022/12/02 05:06:20;;;;;;;26.80;16.30;;;;;;;-1.89;72.19;101759.73;103739;1320;37203;-68
2022/12/02 05:08:54;;;;;;;32.90;19.00;;;;;;;-1.88;72.09;101764.36;103736;1327;37277;-69
2022/12/02 05:11:33;;;;;;;27.80;17.90;;;;;;;-1.91;72.27;101766.84;103597;1327;174944;-70
2022/12/02 05:14:11;;;;;;;34.50;18.50;;;;;;;-1.96;71.87;101770.77;103736;1321;38438;-68
2022/12/02 05:16:46;;;;;;;33.70;18.80;;;;;;;-2.04;71.91;101775.09;103781;1321;38811;-70
2022/12/02 05:19:20;;;;;;;30.30;18.90;;;;;;;-2.05;71.88;101778.83;103750;1321;38529;-67
2022/12/02 05:21:56;;;;;;;25.20;16.60;;;;;;;-2.04;71.83;101781.60;103742;1327;37352;-68
2022/12/02 05:24:31;;;;;;;24.80;16.50;;;;;;;-2.03;71.96;101777.35;103757;1303;37323;-69
2022/12/02 05:27:08;;;;;;;37.20;19.70;;;;;;;-2.01;72.16;101776.41;103731;1327;38817;-69
2022/12/02 05:29:45;;;;;;;25.20;17.30;;;;;;;-1.98;72.11;101777.36;103742;1323;37129;-69
2022/12/02 05:32:20;;;;;;;24.50;15.90;;;;;;;-1.99;71.58;101777.34;103762;1325;37092;-69
2022/12/02 05:34:55;;;;;;;23.40;16.10;;;;;;;-2.08;71.45;101777.85;103762;1327;37724;-69
2022/12/02 05:37:32;;;;;;;26.80;15.30;;;;;;;-2.14;71.52;101781.94;103769;1327;38484;-69
2022/12/02 05:40:09;;;;;;;28.40;16.50;;;;;;;-2.15;71.72;101777.45;103799;1327;36328;-69
2022/12/02 05:42:43;;;;;;;22.90;15.30;;;;;;;-2.12;71.72;101781.30;103774;1321;38087;-69
2022/12/02 05:45:24;;;;;;;32.20;17.80;;;;;;;-2.13;71.73;101786.73;103786;1321;37245;-70
2022/12/02 05:47:58;;;;;;;26.40;16.20;;;;;;;-2.12;71.73;101786.95;103858;1321;37218;-71
2022/12/02 05:50:33;;;;;;;29.00;18.10;;;;;;;-2.14;71.64;101786.04;103805;1327;37072;-69
2022/12/02 05:53:07;;;;;;;31.90;19.70;;;;;;;-2.16;71.68;101792.80;103812;1321;37028;-70
2022/12/02 05:55:41;;;;;;;43.30;21.40;;;;;;;-2.16;71.78;101791.09;103790;1321;38177;-70
2022/12/02 05:58:15;;;;;;;26.00;18.10;;;;;;;-2.17;71.91;101795.48;103788;1323;37199;-70
2022/12/02 06:00:50;;;;;;;31.10;17.90;;;;;;;-2.16;72.02;101796.23;103809;1321;37148;-71
2022/12/02 06:03:24;;;;;;;29.80;15.80;;;;;;;-2.14;71.71;101798.50;103827;1326;37041;-71
2022/12/02 06:05:58;;;;;;;35.30;17.90;;;;;;;-2.13;71.96;101806.09;103801;1322;37164;-71
2022/12/02 06:08:34;;;;;;;27.20;16.20;;;;;;;-2.09;71.75;101808.09;103790;1321;37095;-67
2022/12/02 06:11:22;;;;;;;36.70;18.60;;;;;;;-2.14;71.35;101812.17;103802;1320;37816;-69
2022/12/02 06:14:03;;;;;;;36.80;18.50;;;;;;;-2.18;71.68;101812.02;103802;1327;37118;-69
2022/12/02 06:16:40;;;;;;;32.60;17.50;;;;;;;-2.20;71.57;101811.63;103781;1326;37016;-70
2022/12/02 06:19:25;;;;;;;29.60;16.60;;;;;;;-2.21;71.71;101816.02;103825;1325;37061;-69
2022/12/02 06:22:00;;;;;;;33.50;16.50;;;;;;;-2.21;71.25;101817.56;103775;1321;36830;-69
2022/12/02 06:24:39;;;;;;;28.70;16.90;;;;;;;-2.25;71.32;101818.45;103839;1321;37110;-69
2022/12/02 06:27:19;;;;;;;33.80;15.20;;;;;;;-2.23;71.58;101819.02;103764;1321;36866;-69
2022/12/02 06:29:56;;;;;;;28.50;17.00;;;;;;;-2.22;71.20;101821.80;103801;1327;37021;-67
2022/12/02 06:32:37;;;;;;;30.90;17.70;;;;;;;-2.26;71.34;101817.05;103782;1327;37143;-69
2022/12/02 06:35:23;;;;;;;23.50;15.10;;;;;;;-2.29;71.25;101821.36;103816;1321;37080;-69
2022/12/02 06:38:02;;;;;;;32.70;17.40;;;;;;;-2.35;71.24;101823.55;103820;1327;38041;-69
2022/12/02 06:40:39;;;;;;;25.30;16.20;;;;;;;-2.38;71.28;101826.16;103757;1321;37057;-69
2022/12/02 06:43:19;;;;;;;24.30;17.60;;;;;;;-2.38;71.25;101829.39;103768;1327;37471;-69
2022/12/02 06:45:56;;;;;;;29.00;15.90;;;;;;;-2.37;71.37;101829.80;103718;1321;37195;-69
2022/12/02 06:48:39;;;;;;;22.40;15.10;;;;;;;-2.34;71.20;101831.63;103786;1327;37196;-68
2022/12/02 06:51:19;;;;;;;27.20;16.60;;;;;;;-2.32;71.34;101830.80;103761;1321;37619;-69
2022/12/02 06:53:53;;;;;;;32.90;16.70;;;;;;;-2.33;71.28;101830.97;103783;1321;37067;-70
2022/12/02 06:56:30;;;;;;;28.50;17.90;;;;;;;-2.36;71.24;101833.94;103787;1321;36157;-70
2022/12/02 06:59:04;;;;;;;25.10;15.50;;;;;;;-2.39;71.30;101834.67;103823;1321;37038;-69
2022/12/02 07:01:40;;;;;;;26.50;17.40;;;;;;;-2.44;71.23;101832.92;103784;1321;37133;-70
2022/12/02 07:04:32;;;;;;;35.00;16.40;;;;;;;-2.43;71.62;101833.84;103746;1321;37043;-69
2022/12/02 07:07:23;;;;;;;27.30;16.30;;;;;;;-2.38;71.49;101836.40;103799;1327;36788;-69
2022/12/02 07:09:59;;;;;;;25.40;16.00;;;;;;;-2.36;71.71;101834.62;103454;1321;485579;-68
2022/12/02 07:12:37;;;;;;;25.10;14.50;;;;;;;-2.30;71.68;101839.80;103764;1321;38728;-68
2022/12/02 07:15:26;;;;;;;28.70;16.80;;;;;;;-2.30;71.63;101846.29;103732;1321;37326;-71
2022/12/02 07:18:21;;;;;;;30.50;16.30;;;;;;;-2.30;71.68;101844.41;103762;1321;37049;-70
2022/12/02 07:20:57;;;;;;;24.50;15.50;;;;;;;-2.29;71.70;101841.54;103724;1321;36198;-70
2022/12/02 07:23:32;;;;;;;23.80;13.40;;;;;;;-2.25;71.82;101843.39;103757;1321;37470;-70
2022/12/02 07:26:08;;;;;;;21.70;14.40;;;;;;;-2.19;71.84;101842.27;103721;1321;36162;-70
2022/12/02 07:28:42;;;;;;;26.90;15.10;;;;;;;-2.14;71.75;101841.08;103766;1321;37198;-70
2022/12/02 07:31:21;;;;;;;26.20;15.20;;;;;;;-2.13;71.69;101843.48;103745;1321;37137;-71
2022/12/02 07:33:55;;;;;;;24.60;15.00;;;;;;;-2.09;71.72;101842.45;103780;1321;37553;-71
2022/12/02 07:36:31;;;;;;;27.40;15.40;;;;;;;-2.11;71.53;101846.14;103718;1321;36919;-71
2022/12/02 07:39:06;;;;;;;29.40;17.50;;;;;;;-2.19;71.29;101848.61;103768;1327;37590;-71
2022/12/02 07:41:40;;;;;;;23.60;15.80;;;;;;;-2.22;71.43;101850.17;103717;1321;37092;-69
2022/12/02 07:44:16;;;;;;;33.30;17.00;;;;;;;-2.22;71.54;101845.91;103756;1327;38449;-69
2022/12/02 07:46:50;;;;;;;26.70;14.70;;;;;;;-2.21;71.49;101847.15;103738;1321;37518;-69
2022/12/02 07:49:24;;;;;;;29.40;17.20;;;;;;;-2.21;71.61;101846.98;103750;1327;37116;-69
2022/12/02 07:51:58;;;;;;;28.70;16.60;;;;;;;-2.22;71.68;101847.27;103761;1321;37346;-69
2022/12/02 07:54:36;;;;;;;29.30;17.20;;;;;;;-2.18;71.77;101851.54;103746;1322;37321;-69
2022/12/02 07:57:11;;;;;;;25.70;15.70;;;;;;;-2.19;71.78;101850.65;103731;1321;37136;-69
2022/12/02 07:59:48;;;;;;;37.30;21.10;;;;;;;-2.22;71.50;101849.33;103755;1325;37140;-71
2022/12/02 08:02:24;;;;;;;35.60;19.20;;;;;;;-2.23;71.58;101846.19;103749;1327;37011;-71
2022/12/02 08:04:58;;;;;;;37.90;20.20;;;;;;;-2.22;71.38;101848.65;103709;1321;37190;-70
2022/12/02 08:07:34;;;;;;;37.20;21.40;;;;;;;-2.23;71.33;101844.34;103734;1321;37090;-69
2022/12/02 08:10:16;;;;;;;43.60;22.10;;;;;;;-2.24;71.29;101848.05;103699;1321;37117;-70
2022/12/02 08:12:53;;;;;;;43.70;23.10;;;;;;;-2.29;71.35;101844.28;103764;1321;37070;-69
2022/12/02 08:15:31;;;;;;;35.90;20.50;;;;;;;-2.30;71.56;101845.45;103104;1325;915566;-69
2022/12/02 08:18:07;;;;;;;36.30;21.70;;;;;;;-2.29;71.54;101842.90;103740;1321;37344;-68
2022/12/02 08:20:42;;;;;;;42.60;21.40;;;;;;;-2.35;71.45;101839.79;103731;1323;37041;-69
2022/12/02 08:23:19;;;;;;;33.70;20.70;;;;;;;-2.40;71.52;101838.05;103750;1321;37292;-69
2022/12/02 08:25:55;;;;;;;48.90;23.20;;;;;;;-2.40;71.73;101833.10;103769;1324;36173;-69
2022/12/02 08:28:29;;;;;;;33.30;17.90;;;;;;;-2.32;71.96;101835.25;103734;1321;37345;-70
2022/12/02 08:31:06;;;;;;;29.80;19.00;;;;;;;-2.30;71.98;101829.54;103696;1327;37077;-70
2022/12/02 08:33:42;;;;;;;37.50;19.00;;;;;;;-2.27;71.74;101833.09;103770;1321;37031;-70
2022/12/02 08:36:18;;;;;;;33.30;17.90;;;;;;;-2.29;71.75;101830.23;103736;1320;37059;-70
2022/12/02 08:38:57;;;;;;;40.40;22.20;;;;;;;-2.36;71.78;101827.42;103790;1321;36117;-70
2022/12/02 08:41:37;;;;;;;34.90;19.60;;;;;;;-2.38;72.05;101831.13;103767;1321;36144;-70
2022/12/02 08:44:17;;;;;;;30.60;17.70;;;;;;;-2.37;72.00;101830.65;103707;1321;36074;-69
2022/12/02 08:46:58;;;;;;;39.30;21.30;;;;;;;-2.38;71.99;101828.04;103752;1321;37125;-69
2022/12/02 08:49:33;;;;;;;33.00;18.30;;;;;;;-2.32;72.46;101829.29;103761;1321;37185;-69
2022/12/02 08:52:08;;;;;;;35.40;20.40;;;;;;;-2.26;72.20;101829.34;103747;1321;38202;-68
2022/12/02 08:54:47;;;;;;;32.70;19.00;;;;;;;-2.24;72.18;101834.36;103742;1321;37468;-68
2022/12/02 08:57:22;;;;;;;41.70;21.50;;;;;;;-2.25;72.28;101832.79;103713;1321;38257;-68
2022/12/02 09:00:08;;;;;;;36.70;21.00;;;;;;;-2.26;72.16;101835.33;103729;1319;36874;-68
2022/12/02 09:02:45;;;;;;;29.80;18.10;;;;;;;-2.28;72.16;101830.45;103968;1321;37607;-68
2022/12/02 09:05:20;;;;;;;30.30;19.20;;;;;;;-2.33;72.19;101827.88;103749;1327;37342;-70
2022/12/02 09:07:57;;;;;;;29.10;17.30;;;;;;;-2.30;72.33;101833.13;103724;1305;38517;-69
2022/12/02 09:10:32;;;;;;;43.70;19.60;;;;;;;-2.32;72.37;101832.00;103721;1327;37247;-69
2022/12/02 09:13:08;;;;;;;37.00;21.40;;;;;;;-2.33;72.44;101833.00;103731;1321;37121;-69
2022/12/02 09:15:43;;;;;;;36.60;20.50;;;;;;;-2.28;72.54;101833.70;103752;1321;37526;-69
2022/12/02 09:18:23;;;;;;;41.50;20.40;;;;;;;-2.28;72.39;101835.05;103797;1321;37115;-69
2022/12/02 09:20:59;;;;;;;36.50;19.90;;;;;;;-2.30;72.47;101831.58;103752;1321;37100;-69
2022/12/02 09:23:37;;;;;;;42.30;22.50;;;;;;;-2.28;72.28;101831.13;103757;1322;37279;-69
2022/12/02 09:26:11;;;;;;;30.60;18.60;;;;;;;-2.30;72.18;101833.12;103733;1321;37039;-70
2022/12/02 09:28:48;;;;;;;40.10;22.80;;;;;;;-2.30;72.27;101832.95;103756;1321;37080;-69
2022/12/02 09:31:23;;;;;;;35.70;21.10;;;;;;;-2.29;72.19;101829.23;103768;1322;37074;-69
2022/12/02 09:33:57;;;;;;;41.00;20.50;;;;;;;-2.37;71.93;101828.42;103806;1327;37915;-72
2022/12/02 09:36:31;;;;;;;29.40;17.50;;;;;;;-2.39;72.27;101830.73;103760;1321;36991;-72
2022/12/02 09:39:05;;;;;;;25.30;14.70;;;;;;;-2.44;72.12;101825.92;103789;1321;37016;-70
2022/12/02 09:41:42;;;;;;;27.40;16.10;;;;;;;-2.49;72.01;101825.41;103768;1327;37228;-71
2022/12/02 09:44:18;;;;;;;32.90;18.60;;;;;;;-2.46;72.40;101823.30;103813;1321;37437;-71
2022/12/02 09:46:53;;;;;;;26.70;16.00;;;;;;;-2.37;72.47;101820.56;103753;1327;37256;-71
2022/12/02 09:49:27;;;;;;;40.90;22.20;;;;;;;-2.35;71.78;101824.23;103780;1321;38494;-70
2022/12/02 09:52:03;;;;;;;51.30;23.50;;;;;;;-2.36;72.22;101824.69;103765;1321;38113;-71
2022/12/02 09:54:37;;;;;;;46.10;21.10;;;;;;;-2.36;71.95;101829.13;103821;1327;37144;-68
2022/12/02 09:57:14;;;;;;;34.30;19.30;;;;;;;-2.41;71.72;101834.41;103755;1321;36296;-69
2022/12/02 09:59:50;;;;;;;55.50;25.40;;;;;;;-2.47;71.79;101829.77;103784;1321;37107;-70
2022/12/02 10:02:33;;;;;;;30.80;18.40;;;;;;;-2.49;71.80;101825.56;103759;1327;37578;-70
2022/12/02 10:05:21;;;;;;;58.40;25.80;;;;;;;-2.50;71.82;101822.98;103792;1321;37171;-70
2022/12/02 10:07:56;;;;;;;31.10;18.00;;;;;;;-2.45;71.75;101824.03;103802;1321;37116;-70
2022/12/02 10:10:39;;;;;;;33.70;19.00;;;;;;;-2.43;71.93;101822.56;103748;1327;37428;-70
2022/12/02 10:13:18;;;;;;;57.90;26.00;;;;;;;-2.37;72.05;101829.27;103767;1321;37036;-70
2022/12/02 10:15:55;;;;;;;36.80;19.80;;;;;;;-2.33;71.95;101828.04;103767;1327;37146;-70
2022/12/02 10:18:32;;;;;;;33.90;19.70;;;;;;;-2.32;71.74;101829.11;103799;1323;37026;-70
2022/12/02 10:21:09;;;;;;;51.30;23.60;;;;;;;-2.36;71.71;101826.23;103133;1321;919389;-71
2022/12/02 10:24:02;;;;;;;40.30;21.00;;;;;;;-2.36;71.68;101828.12;103787;1321;37076;-71
2022/12/02 10:26:47;;;;;;;49.40;24.40;;;;;;;-2.36;71.92;101827.79;103780;1321;38287;-71
2022/12/02 10:29:31;;;;;;;68.60;30.30;;;;;;;-2.29;71.83;101823.94;103792;1327;38248;-71
2022/12/02 10:32:06;;;;;;;67.40;30.60;;;;;;;-2.28;71.66;101827.58;103761;1321;38910;-71
2022/12/02 10:34:40;;;;;;;76.80;31.60;;;;;;;-2.30;71.57;101825.93;103798;1327;38804;-72
2022/12/02 10:37:25;;;;;;;42.50;23.30;;;;;;;-2.42;71.37;101830.10;103791;1321;37104;-72
2022/12/02 10:40:16;;;;;;;89.50;38.10;;;;;;;-2.53;71.60;101826.29;103800;1327;37059;-72
2022/12/02 10:43:18;;;;;;;59.60;30.40;;;;;;;-2.55;71.95;101821.23;103804;1322;37101;-71
2022/12/02 10:46:01;;;;;;;46.40;25.10;;;;;;;-2.53;72.09;101823.52;103799;1327;37166;-70
2022/12/02 10:48:35;;;;;;;35.80;21.10;;;;;;;-2.53;71.71;101820.80;103819;1327;36053;-71
2022/12/02 10:51:14;;;;;;;38.70;21.00;;;;;;;-2.56;71.57;101816.55;103773;1321;37077;-69
2022/12/02 10:53:50;;;;;;;36.30;21.20;;;;;;;-2.55;71.78;101814.75;103787;1327;37363;-70
2022/12/02 10:56:25;;;;;;;48.50;21.80;;;;;;;-2.50;71.90;101816.81;103720;1327;36499;-70
2022/12/02 10:59:01;;;;;;;66.80;29.40;;;;;;;-2.52;71.91;101817.08;103778;1323;37353;-71
2022/12/02 11:01:35;;;;;;;67.50;31.40;;;;;;;-2.53;72.02;101815.16;103779;1325;37401;-70
2022/12/02 11:04:14;;;;;;;49.20;26.50;;;;;;;-2.57;71.74;101816.71;103785;1321;36731;-70
2022/12/02 11:06:48;;;;;;;66.20;30.80;;;;;;;-2.61;71.80;101818.80;103795;1321;37292;-70
2022/12/02 11:09:26;;;;;;;59.10;28.00;;;;;;;-2.68;72.03;101822.61;103665;1321;174951;-70
2022/12/02 11:12:16;;;;;;;77.80;34.70;;;;;;;-2.65;72.09;101820.52;103773;1322;37438;-70
2022/12/02 11:15:01;;;;;;;72.50;31.40;;;;;;;-2.56;72.27;101820.17;103759;1321;37127;-71
2022/12/02 11:17:56;;;;;;;74.00;32.60;;;;;;;-2.51;72.18;101818.65;103756;1321;36299;-69
2022/12/02 11:20:39;;;;;;;50.60;24.60;;;;;;;-2.55;72.04;101815.60;103704;1321;38262;-70
2022/12/02 11:23:29;;;;;;;58.60;27.40;;;;;;;-2.60;71.73;101814.73;103734;1321;37083;-70
2022/12/02 11:26:13;;;;;;;39.70;22.40;;;;;;;-2.63;71.80;101814.60;103716;1327;37040;-71
2022/12/02 11:29:06;;;;;;;47.80;25.30;;;;;;;-2.63;71.96;101813.75;103163;1321;919152;-71
2022/12/02 11:31:40;;;;;;;53.10;25.60;;;;;;;-2.63;71.99;101811.89;103735;1321;38445;-69
2022/12/02 11:34:48;;;;;;;42.80;22.90;;;;;;;-2.56;71.98;101811.79;103774;1321;37109;-69
2022/12/02 11:37:52;;;;;;;42.30;23.70;;;;;;;-2.53;71.95;101810.20;103788;1323;38490;-70
2022/12/02 11:40:59;;;;;;;45.30;23.50;;;;;;;-2.50;71.80;101809.31;103746;1327;38456;-70
2022/12/02 11:44:25;;;;;;;39.90;21.20;;;;;;;-2.54;71.67;101810.34;103761;1321;36482;-70
2022/12/02 11:47:01;;;;;;;57.70;27.00;;;;;;;-2.61;71.91;101807.16;103780;1321;37454;-70
2022/12/02 11:49:43;;;;;;;42.10;24.20;;;;;;;-2.61;71.93;101802.72;103793;1321;37044;-71
2022/12/02 11:52:25;;;;;;;43.90;22.70;;;;;;;-2.61;72.08;101803.24;103784;1321;37134;-72